sensor_id;sensor_type;location;lat;lon;timestamp;temperature;humidity
17815;DHT22;9031;50.974;11.330;2022-10-31T00:00:06;10.90;99.90
17815;DHT22;9031;50.974;11.330;2022-10-31T00:02:32;10.80;99.90
17815;DHT22;9031;50.974;11.330;2022-10-31T00:04:57;10.80;99.90
17815;DHT22;9031;50.974;11.330;2022-10-31T00:07:23;10.80;99.90
17815;DHT22;9031;50.974;11.330;2022-10-31T00:09:48;10.80;99.90
17815;DHT22;9031;50.974;11.330;2022-10-31T00:12:14;10.70;99.90
17815;DHT22;9031;50.974;11.330;2022-10-31T00:14:39;10.70;99.90
17815;DHT22;9031;50.974;11.330;2022-10-31T00:17:05;10.70;99.90
17815;DHT22;9031;50.974;11.330;2022-10-31T00:19:30;10.60;99.90
17815;DHT22;9031;50.974;11.330;2022-10-31T00:21:56;10.50;99.90
17815;DHT22;9031;50.974;11.330;2022-10-31T00:24:21;10.60;99.90
17815;DHT22;9031;50.974;11.330;2022-10-31T00:26:47;10.50;99.90
17815;DHT22;9031;50.974;11.330;2022-10-31T00:29:12;10.60;99.90
17815;DHT22;9031;50.974;11.330;2022-10-31T00:31:38;10.60;99.90
17815;DHT22;9031;50.974;11.330;2022-10-31T00:34:03;10.50;99.90
17815;DHT22;9031;50.974;11.330;2022-10-31T00:36:29;10.40;99.90
17815;DHT22;9031;50.974;11.330;2022-10-31T00:38:54;10.40;99.90
17815;DHT22;9031;50.974;11.330;2022-10-31T00:41:20;10.30;99.90
17815;DHT22;9031;50.974;11.330;2022-10-31T00:43:46;10.40;99.90
17815;DHT22;9031;50.974;11.330;2022-10-31T00:46:12;10.40;99.90
17815;DHT22;9031;50.974;11.330;2022-10-31T00:48:38;10.50;99.90
17815;DHT22;9031;50.974;11.330;2022-10-31T00:51:04;10.40;99.90
17815;DHT22;9031;50.974;11.330;2022-10-31T00:53:30;10.40;99.90
17815;DHT22;9031;50.974;11.330;2022-10-31T00:55:55;10.40;99.90
17815;DHT22;9031;50.974;11.330;2022-10-31T00:58:21;10.30;99.90
17815;DHT22;9031;50.974;11.330;2022-10-31T01:00:48;10.30;99.90
17815;DHT22;9031;50.974;11.330;2022-10-31T01:03:23;10.20;99.90
17815;DHT22;9031;50.974;11.330;2022-10-31T01:06:00;10.20;99.90
17815;DHT22;9031;50.974;11.330;2022-10-31T01:08:26;10.20;99.90
17815;DHT22;9031;50.974;11.330;2022-10-31T01:11:17;10.20;99.90
17815;DHT22;9031;50.974;11.330;2022-10-31T01:13:44;10.10;99.90
17815;DHT22;9031;50.974;11.330;2022-10-31T01:16:12;10.10;99.90
17815;DHT22;9031;50.974;11.330;2022-10-31T01:18:38;10.00;99.90
17815;DHT22;9031;50.974;11.330;2022-10-31T01:21:12;9.90;99.90
17815;DHT22;9031;50.974;11.330;2022-10-31T01:23:39;9.90;99.90
17815;DHT22;9031;50.974;11.330;2022-10-31T01:26:16;10.00;99.90
17815;DHT22;9031;50.974;11.330;2022-10-31T01:28:56;10.00;99.90
17815;DHT22;9031;50.974;11.330;2022-10-31T01:31:24;10.10;99.90
17815;DHT22;9031;50.974;11.330;2022-10-31T01:33:50;10.10;99.90
17815;DHT22;9031;50.974;11.330;2022-10-31T01:36:21;10.10;99.90
17815;DHT22;9031;50.974;11.330;2022-10-31T01:38:47;10.00;99.90
17815;DHT22;9031;50.974;11.330;2022-10-31T01:41:16;9.90;99.90
17815;DHT22;9031;50.974;11.330;2022-10-31T01:43:51;9.90;99.90
17815;DHT22;9031;50.974;11.330;2022-10-31T01:46:24;10.00;99.90
17815;DHT22;9031;50.974;11.330;2022-10-31T01:48:52;10.10;99.90
17815;DHT22;9031;50.974;11.330;2022-10-31T01:51:19;10.10;99.90
17815;DHT22;9031;50.974;11.330;2022-10-31T01:53:45;10.10;99.90
17815;DHT22;9031;50.974;11.330;2022-10-31T01:56:13;10.10;99.90
17815;DHT22;9031;50.974;11.330;2022-10-31T01:58:41;10.20;99.90
17815;DHT22;9031;50.974;11.330;2022-10-31T02:01:07;10.20;99.90
17815;DHT22;9031;50.974;11.330;2022-10-31T02:03:33;10.00;99.90
17815;DHT22;9031;50.974;11.330;2022-10-31T02:05:58;10.10;99.90
17815;DHT22;9031;50.974;11.330;2022-10-31T02:08:29;10.00;99.90
17815;DHT22;9031;50.974;11.330;2022-10-31T02:11:00;9.80;99.90
17815;DHT22;9031;50.974;11.330;2022-10-31T02:13:28;9.70;99.90
17815;DHT22;9031;50.974;11.330;2022-10-31T02:15:56;9.70;99.90
17815;DHT22;9031;50.974;11.330;2022-10-31T02:18:24;9.70;99.90
17815;DHT22;9031;50.974;11.330;2022-10-31T02:29:11;9.80;99.90
17815;DHT22;9031;50.974;11.330;2022-10-31T02:36:55;9.60;99.90
17815;DHT22;9031;50.974;11.330;2022-10-31T02:39:43;9.60;99.90
17815;DHT22;9031;50.974;11.330;2022-10-31T02:42:17;9.50;99.90
17815;DHT22;9031;50.974;11.330;2022-10-31T02:45:08;9.60;99.90
17815;DHT22;9031;50.974;11.330;2022-10-31T02:47:37;9.70;99.90
17815;DHT22;9031;50.974;11.330;2022-10-31T02:50:15;9.70;99.90
17815;DHT22;9031;50.974;11.330;2022-10-31T02:52:43;9.70;99.90
17815;DHT22;9031;50.974;11.330;2022-10-31T02:55:12;9.80;99.90
17815;DHT22;9031;50.974;11.330;2022-10-31T02:57:40;9.70;99.90
17815;DHT22;9031;50.974;11.330;2022-10-31T03:00:08;9.70;99.90
17815;DHT22;9031;50.974;11.330;2022-10-31T03:03:00;9.70;99.90
17815;DHT22;9031;50.974;11.330;2022-10-31T03:06:00;9.70;99.90
17815;DHT22;9031;50.974;11.330;2022-10-31T03:08:54;9.60;99.90
17815;DHT22;9031;50.974;11.330;2022-10-31T03:11:24;9.50;99.90
17815;DHT22;9031;50.974;11.330;2022-10-31T03:14:00;9.40;99.90
17815;DHT22;9031;50.974;11.330;2022-10-31T03:19:05;9.30;99.90
17815;DHT22;9031;50.974;11.330;2022-10-31T03:21:40;9.30;99.90
17815;DHT22;9031;50.974;11.330;2022-10-31T03:24:09;9.40;99.90
17815;DHT22;9031;50.974;11.330;2022-10-31T03:26:38;9.40;99.90
17815;DHT22;9031;50.974;11.330;2022-10-31T03:29:06;9.40;99.90
17815;DHT22;9031;50.974;11.330;2022-10-31T03:31:38;9.50;99.90
17815;DHT22;9031;50.974;11.330;2022-10-31T03:34:07;9.60;99.90
17815;DHT22;9031;50.974;11.330;2022-10-31T03:36:34;9.60;99.90
17815;DHT22;9031;50.974;11.330;2022-10-31T03:39:02;9.70;99.90
17815;DHT22;9031;50.974;11.330;2022-10-31T03:41:34;9.70;99.90
17815;DHT22;9031;50.974;11.330;2022-10-31T03:44:08;9.60;99.90
17815;DHT22;9031;50.974;11.330;2022-10-31T03:46:34;9.50;99.90
17815;DHT22;9031;50.974;11.330;2022-10-31T03:49:01;9.50;99.90
17815;DHT22;9031;50.974;11.330;2022-10-31T03:51:37;9.30;99.90
17815;DHT22;9031;50.974;11.330;2022-10-31T03:56:56;9.10;99.90
17815;DHT22;9031;50.974;11.330;2022-10-31T03:59:34;9.10;99.90
17815;DHT22;9031;50.974;11.330;2022-10-31T04:02:10;9.20;99.90
17815;DHT22;9031;50.974;11.330;2022-10-31T04:04:37;9.20;99.90
17815;DHT22;9031;50.974;11.330;2022-10-31T04:07:03;9.00;99.90
17815;DHT22;9031;50.974;11.330;2022-10-31T04:09:33;9.00;99.90
17815;DHT22;9031;50.974;11.330;2022-10-31T04:12:00;8.90;99.90
17815;DHT22;9031;50.974;11.330;2022-10-31T04:14:27;8.90;99.90
17815;DHT22;9031;50.974;11.330;2022-10-31T04:16:55;9.00;99.90
17815;DHT22;9031;50.974;11.330;2022-10-31T04:19:20;8.90;99.90
17815;DHT22;9031;50.974;11.330;2022-10-31T04:21:46;8.90;99.90
17815;DHT22;9031;50.974;11.330;2022-10-31T04:24:11;8.80;99.90
17815;DHT22;9031;50.974;11.330;2022-10-31T04:26:37;8.80;99.90
17815;DHT22;9031;50.974;11.330;2022-10-31T04:29:02;8.80;99.90
17815;DHT22;9031;50.974;11.330;2022-10-31T04:31:28;8.90;99.90
17815;DHT22;9031;50.974;11.330;2022-10-31T04:33:54;8.90;99.90
17815;DHT22;9031;50.974;11.330;2022-10-31T04:36:19;9.20;99.90
17815;DHT22;9031;50.974;11.330;2022-10-31T04:38:45;9.20;99.90
17815;DHT22;9031;50.974;11.330;2022-10-31T04:41:10;9.20;99.90
17815;DHT22;9031;50.974;11.330;2022-10-31T04:43:36;9.10;99.90
17815;DHT22;9031;50.974;11.330;2022-10-31T04:46:01;9.00;99.90
17815;DHT22;9031;50.974;11.330;2022-10-31T04:48:27;9.00;99.90
17815;DHT22;9031;50.974;11.330;2022-10-31T04:50:52;9.00;99.90
17815;DHT22;9031;50.974;11.330;2022-10-31T04:53:18;9.00;99.90
17815;DHT22;9031;50.974;11.330;2022-10-31T04:55:43;9.00;99.90
17815;DHT22;9031;50.974;11.330;2022-10-31T04:58:09;9.00;99.90
17815;DHT22;9031;50.974;11.330;2022-10-31T05:00:34;9.10;99.90
17815;DHT22;9031;50.974;11.330;2022-10-31T05:03:00;9.10;99.90
17815;DHT22;9031;50.974;11.330;2022-10-31T05:05:30;9.10;99.90
17815;DHT22;9031;50.974;11.330;2022-10-31T05:07:56;9.10;99.90
17815;DHT22;9031;50.974;11.330;2022-10-31T05:10:24;9.10;99.90
17815;DHT22;9031;50.974;11.330;2022-10-31T05:12:52;9.20;99.90
17815;DHT22;9031;50.974;11.330;2022-10-31T05:15:20;9.20;99.90
17815;DHT22;9031;50.974;11.330;2022-10-31T05:17:46;9.00;99.90
17815;DHT22;9031;50.974;11.330;2022-10-31T05:20:13;8.90;99.90
17815;DHT22;9031;50.974;11.330;2022-10-31T05:22:50;8.80;99.90
17815;DHT22;9031;50.974;11.330;2022-10-31T05:25:17;8.70;99.90
17815;DHT22;9031;50.974;11.330;2022-10-31T05:27:44;8.70;99.90
17815;DHT22;9031;50.974;11.330;2022-10-31T05:30:12;8.80;99.90
17815;DHT22;9031;50.974;11.330;2022-10-31T05:32:45;8.80;99.90
17815;DHT22;9031;50.974;11.330;2022-10-31T05:35:13;8.70;99.90
17815;DHT22;9031;50.974;11.330;2022-10-31T05:37:39;8.70;99.90
17815;DHT22;9031;50.974;11.330;2022-10-31T05:40:08;8.70;99.90
17815;DHT22;9031;50.974;11.330;2022-10-31T05:42:34;8.80;99.90
17815;DHT22;9031;50.974;11.330;2022-10-31T05:45:00;8.90;99.90
17815;DHT22;9031;50.974;11.330;2022-10-31T05:47:25;9.00;99.90
17815;DHT22;9031;50.974;11.330;2022-10-31T05:49:51;9.00;99.90
17815;DHT22;9031;50.974;11.330;2022-10-31T05:52:17;9.10;99.90
17815;DHT22;9031;50.974;11.330;2022-10-31T05:54:42;9.10;99.90
17815;DHT22;9031;50.974;11.330;2022-10-31T05:57:08;9.10;99.90
17815;DHT22;9031;50.974;11.330;2022-10-31T05:59:33;9.10;99.90
17815;DHT22;9031;50.974;11.330;2022-10-31T06:01:59;9.00;99.90
17815;DHT22;9031;50.974;11.330;2022-10-31T06:04:25;9.00;99.90
17815;DHT22;9031;50.974;11.330;2022-10-31T06:06:50;9.00;99.90
17815;DHT22;9031;50.974;11.330;2022-10-31T06:09:15;8.90;99.90
17815;DHT22;9031;50.974;11.330;2022-10-31T06:11:41;9.00;99.90
17815;DHT22;9031;50.974;11.330;2022-10-31T06:14:06;9.00;99.90
17815;DHT22;9031;50.974;11.330;2022-10-31T06:16:32;9.00;99.90
17815;DHT22;9031;50.974;11.330;2022-10-31T06:18:58;9.00;99.90
17815;DHT22;9031;50.974;11.330;2022-10-31T06:21:23;9.00;99.90
17815;DHT22;9031;50.974;11.330;2022-10-31T06:23:49;8.90;99.90
17815;DHT22;9031;50.974;11.330;2022-10-31T06:26:14;8.90;99.90
17815;DHT22;9031;50.974;11.330;2022-10-31T06:28:40;8.90;99.90
17815;DHT22;9031;50.974;11.330;2022-10-31T06:31:05;8.90;99.90
17815;DHT22;9031;50.974;11.330;2022-10-31T06:33:31;8.90;99.90
17815;DHT22;9031;50.974;11.330;2022-10-31T06:35:56;9.00;99.90
17815;DHT22;9031;50.974;11.330;2022-10-31T06:38:22;9.00;99.90
17815;DHT22;9031;50.974;11.330;2022-10-31T06:40:47;9.10;99.90
17815;DHT22;9031;50.974;11.330;2022-10-31T06:43:13;9.10;99.90
17815;DHT22;9031;50.974;11.330;2022-10-31T06:45:40;9.10;99.90
17815;DHT22;9031;50.974;11.330;2022-10-31T06:48:05;9.20;99.90
17815;DHT22;9031;50.974;11.330;2022-10-31T06:50:31;9.00;99.90
17815;DHT22;9031;50.974;11.330;2022-10-31T06:52:58;9.00;99.90
17815;DHT22;9031;50.974;11.330;2022-10-31T06:55:25;9.10;99.90
17815;DHT22;9031;50.974;11.330;2022-10-31T06:58:00;9.10;99.90
17815;DHT22;9031;50.974;11.330;2022-10-31T07:00:29;9.10;99.90
17815;DHT22;9031;50.974;11.330;2022-10-31T07:03:05;9.10;99.90
17815;DHT22;9031;50.974;11.330;2022-10-31T07:05:31;9.10;99.90
17815;DHT22;9031;50.974;11.330;2022-10-31T07:07:59;9.10;99.90
17815;DHT22;9031;50.974;11.330;2022-10-31T07:10:26;9.20;99.90
17815;DHT22;9031;50.974;11.330;2022-10-31T07:13:00;9.40;99.90
17815;DHT22;9031;50.974;11.330;2022-10-31T07:15:27;9.60;99.90
17815;DHT22;9031;50.974;11.330;2022-10-31T07:17:53;9.70;99.90
17815;DHT22;9031;50.974;11.330;2022-10-31T07:20:19;9.80;99.90
17815;DHT22;9031;50.974;11.330;2022-10-31T07:22:45;9.70;99.90
17815;DHT22;9031;50.974;11.330;2022-10-31T07:25:11;9.80;99.90
17815;DHT22;9031;50.974;11.330;2022-10-31T07:27:38;9.90;99.90
17815;DHT22;9031;50.974;11.330;2022-10-31T07:30:04;9.90;99.90
17815;DHT22;9031;50.974;11.330;2022-10-31T07:32:45;10.10;99.90
17815;DHT22;9031;50.974;11.330;2022-10-31T07:35:13;10.30;99.90
17815;DHT22;9031;50.974;11.330;2022-10-31T07:37:38;10.40;99.90
17815;DHT22;9031;50.974;11.330;2022-10-31T07:40:05;10.60;99.90
17815;DHT22;9031;50.974;11.330;2022-10-31T07:42:38;10.70;99.90
17815;DHT22;9031;50.974;11.330;2022-10-31T07:45:05;10.80;99.90
17815;DHT22;9031;50.974;11.330;2022-10-31T07:47:51;11.00;99.90
17815;DHT22;9031;50.974;11.330;2022-10-31T07:50:23;11.10;99.90
17815;DHT22;9031;50.974;11.330;2022-10-31T07:53:01;11.30;99.90
17815;DHT22;9031;50.974;11.330;2022-10-31T07:55:28;11.50;99.90
17815;DHT22;9031;50.974;11.330;2022-10-31T07:58:01;11.70;99.90
17815;DHT22;9031;50.974;11.330;2022-10-31T08:00:27;11.70;99.90
17815;DHT22;9031;50.974;11.330;2022-10-31T08:03:00;11.70;99.90
17815;DHT22;9031;50.974;11.330;2022-10-31T08:05:25;11.80;99.90
17815;DHT22;9031;50.974;11.330;2022-10-31T08:07:51;12.00;99.90
17815;DHT22;9031;50.974;11.330;2022-10-31T08:10:17;12.30;99.90
17815;DHT22;9031;50.974;11.330;2022-10-31T08:12:42;12.40;99.90
17815;DHT22;9031;50.974;11.330;2022-10-31T08:15:08;12.50;99.90
17815;DHT22;9031;50.974;11.330;2022-10-31T08:17:37;12.70;99.90
17815;DHT22;9031;50.974;11.330;2022-10-31T08:20:04;12.90;99.90
17815;DHT22;9031;50.974;11.330;2022-10-31T08:22:30;13.00;99.90
17815;DHT22;9031;50.974;11.330;2022-10-31T08:24:55;13.20;99.90
17815;DHT22;9031;50.974;11.330;2022-10-31T08:27:21;13.60;99.90
17815;DHT22;9031;50.974;11.330;2022-10-31T08:29:46;13.70;99.90
17815;DHT22;9031;50.974;11.330;2022-10-31T08:32:12;13.60;99.90
17815;DHT22;9031;50.974;11.330;2022-10-31T08:34:37;13.70;99.90
17815;DHT22;9031;50.974;11.330;2022-10-31T08:37:03;13.70;99.90
17815;DHT22;9031;50.974;11.330;2022-10-31T08:39:28;13.80;99.90
17815;DHT22;9031;50.974;11.330;2022-10-31T08:41:54;13.90;99.90
17815;DHT22;9031;50.974;11.330;2022-10-31T08:44:19;14.20;99.90
17815;DHT22;9031;50.974;11.330;2022-10-31T08:46:45;14.50;99.90
17815;DHT22;9031;50.974;11.330;2022-10-31T08:49:10;15.00;99.90
17815;DHT22;9031;50.974;11.330;2022-10-31T08:51:36;15.20;99.90
17815;DHT22;9031;50.974;11.330;2022-10-31T08:54:01;15.20;99.90
17815;DHT22;9031;50.974;11.330;2022-10-31T08:56:27;15.60;99.90
17815;DHT22;9031;50.974;11.330;2022-10-31T08:58:53;15.90;99.90
17815;DHT22;9031;50.974;11.330;2022-10-31T09:01:18;16.20;99.90
17815;DHT22;9031;50.974;11.330;2022-10-31T09:03:44;16.40;99.90
17815;DHT22;9031;50.974;11.330;2022-10-31T09:06:10;16.40;99.90
17815;DHT22;9031;50.974;11.330;2022-10-31T09:08:35;16.60;99.90
17815;DHT22;9031;50.974;11.330;2022-10-31T09:11:02;17.00;99.90
17815;DHT22;9031;50.974;11.330;2022-10-31T09:13:27;17.40;99.90
17815;DHT22;9031;50.974;11.330;2022-10-31T09:15:52;17.60;99.90
17815;DHT22;9031;50.974;11.330;2022-10-31T09:18:20;17.80;99.90
17815;DHT22;9031;50.974;11.330;2022-10-31T09:20:47;18.20;99.90
17815;DHT22;9031;50.974;11.330;2022-10-31T09:23:18;18.00;99.90
17815;DHT22;9031;50.974;11.330;2022-10-31T09:25:45;17.70;99.90
17815;DHT22;9031;50.974;11.330;2022-10-31T09:28:12;17.80;99.90
17815;DHT22;9031;50.974;11.330;2022-10-31T09:30:38;18.30;99.90
17815;DHT22;9031;50.974;11.330;2022-10-31T09:33:13;18.80;99.90
17815;DHT22;9031;50.974;11.330;2022-10-31T09:35:40;19.50;99.90
17815;DHT22;9031;50.974;11.330;2022-10-31T09:38:13;19.70;99.90
17815;DHT22;9031;50.974;11.330;2022-10-31T09:43:34;19.90;99.90
17815;DHT22;9031;50.974;11.330;2022-10-31T09:51:44;20.60;99.90
17815;DHT22;9031;50.974;11.330;2022-10-31T09:54:18;20.70;99.90
17815;DHT22;9031;50.974;11.330;2022-10-31T09:56:45;21.30;99.90
17815;DHT22;9031;50.974;11.330;2022-10-31T09:59:39;21.10;99.90
17815;DHT22;9031;50.974;11.330;2022-10-31T10:02:27;21.60;99.90
17815;DHT22;9031;50.974;11.330;2022-10-31T10:05:01;21.20;99.90
17815;DHT22;9031;50.974;11.330;2022-10-31T10:08:00;22.00;99.90
17815;DHT22;9031;50.974;11.330;2022-10-31T10:13:17;21.00;99.90
17815;DHT22;9031;50.974;11.330;2022-10-31T10:27:21;22.70;99.90
17815;DHT22;9031;50.974;11.330;2022-10-31T10:30:00;21.50;99.90
17815;DHT22;9031;50.974;11.330;2022-10-31T10:32:35;20.80;99.90
17815;DHT22;9031;50.974;11.330;2022-10-31T10:35:32;21.10;99.90
17815;DHT22;9031;50.974;11.330;2022-10-31T10:38:07;22.30;99.90
17815;DHT22;9031;50.974;11.330;2022-10-31T10:40:34;22.60;99.90
17815;DHT22;9031;50.974;11.330;2022-10-31T10:54:28;28.30;99.90
17815;DHT22;9031;50.974;11.330;2022-10-31T10:59:30;27.60;99.90
17815;DHT22;9031;50.974;11.330;2022-10-31T11:01:57;26.10;99.90
17815;DHT22;9031;50.974;11.330;2022-10-31T11:04:35;26.30;99.90
17815;DHT22;9031;50.974;11.330;2022-10-31T11:07:03;26.70;99.90
17815;DHT22;9031;50.974;11.330;2022-10-31T11:09:30;27.50;99.90
17815;DHT22;9031;50.974;11.330;2022-10-31T11:11:56;27.60;99.90
17815;DHT22;9031;50.974;11.330;2022-10-31T11:14:23;28.20;99.90
17815;DHT22;9031;50.974;11.330;2022-10-31T11:17:06;28.60;99.90
17815;DHT22;9031;50.974;11.330;2022-10-31T11:19:33;28.50;99.90
17815;DHT22;9031;50.974;11.330;2022-10-31T11:22:07;28.50;99.90
17815;DHT22;9031;50.974;11.330;2022-10-31T11:24:38;28.80;99.90
17815;DHT22;9031;50.974;11.330;2022-10-31T11:27:16;28.10;99.90
17815;DHT22;9031;50.974;11.330;2022-10-31T11:29:45;27.80;99.90
17815;DHT22;9031;50.974;11.330;2022-10-31T11:32:22;27.00;99.90
17815;DHT22;9031;50.974;11.330;2022-10-31T11:34:52;26.40;99.90
17815;DHT22;9031;50.974;11.330;2022-10-31T11:37:23;25.80;99.90
17815;DHT22;9031;50.974;11.330;2022-10-31T11:39:53;25.10;99.90
17815;DHT22;9031;50.974;11.330;2022-10-31T11:42:21;24.60;99.90
17815;DHT22;9031;50.974;11.330;2022-10-31T11:44:47;24.20;99.90
17815;DHT22;9031;50.974;11.330;2022-10-31T11:47:17;24.00;99.90
17815;DHT22;9031;50.974;11.330;2022-10-31T11:49:48;24.00;99.90
17815;DHT22;9031;50.974;11.330;2022-10-31T11:52:20;23.70;99.90
17815;DHT22;9031;50.974;11.330;2022-10-31T11:57:28;24.30;99.90
17815;DHT22;9031;50.974;11.330;2022-10-31T11:59:59;24.50;99.90
17815;DHT22;9031;50.974;11.330;2022-10-31T12:02:25;24.80;99.90
17815;DHT22;9031;50.974;11.330;2022-10-31T12:05:18;24.90;99.90
17815;DHT22;9031;50.974;11.330;2022-10-31T12:07:45;24.40;99.90
17815;DHT22;9031;50.974;11.330;2022-10-31T12:10:11;23.90;99.90
17815;DHT22;9031;50.974;11.330;2022-10-31T12:12:44;23.90;99.90
17815;DHT22;9031;50.974;11.330;2022-10-31T12:15:32;23.90;99.90
17815;DHT22;9031;50.974;11.330;2022-10-31T12:26:36;23.70;99.90
17815;DHT22;9031;50.974;11.330;2022-10-31T12:32:11;22.70;99.90
17815;DHT22;9031;50.974;11.330;2022-10-31T12:34:46;22.30;99.90
17815;DHT22;9031;50.974;11.330;2022-10-31T12:51:00;21.20;99.90
17815;DHT22;9031;50.974;11.330;2022-10-31T12:53:52;20.90;99.90
17815;DHT22;9031;50.974;11.330;2022-10-31T12:56:42;20.60;99.90
17815;DHT22;9031;50.974;11.330;2022-10-31T13:10:29;20.50;99.90
17815;DHT22;9031;50.974;11.330;2022-10-31T13:13:01;20.50;99.90
17815;DHT22;9031;50.974;11.330;2022-10-31T13:15:31;20.30;99.90
17815;DHT22;9031;50.974;11.330;2022-10-31T13:18:03;20.30;99.90
17815;DHT22;9031;50.974;11.330;2022-10-31T13:20:33;20.30;99.90
17815;DHT22;9031;50.974;11.330;2022-10-31T13:25:53;20.30;99.90
17815;DHT22;9031;50.974;11.330;2022-10-31T13:28:41;20.20;99.90
17815;DHT22;9031;50.974;11.330;2022-10-31T13:31:08;20.10;99.90
17815;DHT22;9031;50.974;11.330;2022-10-31T13:36:15;20.10;99.90
17815;DHT22;9031;50.974;11.330;2022-10-31T13:41:40;19.90;99.90
17815;DHT22;9031;50.974;11.330;2022-10-31T13:44:27;19.80;99.90
17815;DHT22;9031;50.974;11.330;2022-10-31T13:46:55;19.70;99.90
17815;DHT22;9031;50.974;11.330;2022-10-31T13:51:49;19.60;99.90
17815;DHT22;9031;50.974;11.330;2022-10-31T13:54:32;19.50;99.90
17815;DHT22;9031;50.974;11.330;2022-10-31T13:56:58;19.50;99.90
17815;DHT22;9031;50.974;11.330;2022-10-31T13:59:26;19.50;99.90
17815;DHT22;9031;50.974;11.330;2022-10-31T14:02:00;19.50;99.90
17815;DHT22;9031;50.974;11.330;2022-10-31T14:04:31;19.50;99.90
17815;DHT22;9031;50.974;11.330;2022-10-31T14:07:10;19.50;99.90
17815;DHT22;9031;50.974;11.330;2022-10-31T14:09:57;19.40;99.90
17815;DHT22;9031;50.974;11.330;2022-10-31T14:14:55;19.10;99.90
17815;DHT22;9031;50.974;11.330;2022-10-31T14:17:25;19.10;99.90
17815;DHT22;9031;50.974;11.330;2022-10-31T14:20:00;18.90;99.90
17815;DHT22;9031;50.974;11.330;2022-10-31T14:22:30;18.90;99.90
17815;DHT22;9031;50.974;11.330;2022-10-31T14:24:56;18.80;99.90
17815;DHT22;9031;50.974;11.330;2022-10-31T14:29:53;18.70;99.90
17815;DHT22;9031;50.974;11.330;2022-10-31T14:32:23;18.60;99.90
17815;DHT22;9031;50.974;11.330;2022-10-31T14:39:53;18.40;99.90
17815;DHT22;9031;50.974;11.330;2022-10-31T14:45:23;18.30;99.90
17815;DHT22;9031;50.974;11.330;2022-10-31T14:50:40;18.20;99.90
17815;DHT22;9031;50.974;11.330;2022-10-31T14:53:30;18.10;99.90
17815;DHT22;9031;50.974;11.330;2022-10-31T14:55:57;17.90;99.90
17815;DHT22;9031;50.974;11.330;2022-10-31T14:58:41;17.80;99.90
17815;DHT22;9031;50.974;11.330;2022-10-31T15:01:30;17.80;99.90
17815;DHT22;9031;50.974;11.330;2022-10-31T15:04:17;17.70;99.90
17815;DHT22;9031;50.974;11.330;2022-10-31T15:06:46;17.70;99.90
17815;DHT22;9031;50.974;11.330;2022-10-31T15:09:23;17.50;99.90
17815;DHT22;9031;50.974;11.330;2022-10-31T15:11:49;17.40;99.90
17815;DHT22;9031;50.974;11.330;2022-10-31T15:14:23;17.30;99.90
17815;DHT22;9031;50.974;11.330;2022-10-31T15:16:49;17.20;99.90
17815;DHT22;9031;50.974;11.330;2022-10-31T15:19:21;17.20;99.90
17815;DHT22;9031;50.974;11.330;2022-10-31T15:21:50;17.10;99.90
17815;DHT22;9031;50.974;11.330;2022-10-31T15:24:16;17.00;99.90
17815;DHT22;9031;50.974;11.330;2022-10-31T15:26:45;17.00;99.90
17815;DHT22;9031;50.974;11.330;2022-10-31T15:29:14;16.90;99.90
17815;DHT22;9031;50.974;11.330;2022-10-31T15:31:56;16.90;99.90
17815;DHT22;9031;50.974;11.330;2022-10-31T15:34:30;16.80;99.90
17815;DHT22;9031;50.974;11.330;2022-10-31T15:36:59;16.70;99.90
17815;DHT22;9031;50.974;11.330;2022-10-31T15:39:24;16.70;99.90
17815;DHT22;9031;50.974;11.330;2022-10-31T15:41:52;16.60;99.90
17815;DHT22;9031;50.974;11.330;2022-10-31T15:44:25;16.40;99.90
17815;DHT22;9031;50.974;11.330;2022-10-31T15:47:00;16.40;99.90
17815;DHT22;9031;50.974;11.330;2022-10-31T15:52:07;16.40;99.90
17815;DHT22;9031;50.974;11.330;2022-10-31T15:54:35;16.30;99.90
17815;DHT22;9031;50.974;11.330;2022-10-31T15:57:10;16.30;99.90
17815;DHT22;9031;50.974;11.330;2022-10-31T15:59:36;16.20;99.90
17815;DHT22;9031;50.974;11.330;2022-10-31T16:02:07;16.20;99.90
17815;DHT22;9031;50.974;11.330;2022-10-31T16:04:34;16.20;99.90
17815;DHT22;9031;50.974;11.330;2022-10-31T16:07:13;16.10;99.90
17815;DHT22;9031;50.974;11.330;2022-10-31T16:09:52;16.00;99.90
17815;DHT22;9031;50.974;11.330;2022-10-31T16:12:18;16.00;99.90
17815;DHT22;9031;50.974;11.330;2022-10-31T16:14:44;15.90;99.90
17815;DHT22;9031;50.974;11.330;2022-10-31T16:17:19;15.90;99.90
17815;DHT22;9031;50.974;11.330;2022-10-31T16:19:59;15.80;99.90
17815;DHT22;9031;50.974;11.330;2022-10-31T16:22:33;15.80;99.90
17815;DHT22;9031;50.974;11.330;2022-10-31T16:25:04;15.80;99.90
17815;DHT22;9031;50.974;11.330;2022-10-31T16:27:33;15.70;99.90
17815;DHT22;9031;50.974;11.330;2022-10-31T16:30:00;15.70;99.90
17815;DHT22;9031;50.974;11.330;2022-10-31T16:37:39;15.50;99.90
17815;DHT22;9031;50.974;11.330;2022-10-31T16:40:05;15.60;99.90
17815;DHT22;9031;50.974;11.330;2022-10-31T16:42:31;15.60;99.90
17815;DHT22;9031;50.974;11.330;2022-10-31T16:44:58;15.60;99.90
17815;DHT22;9031;50.974;11.330;2022-10-31T16:47:24;15.50;99.90
17815;DHT22;9031;50.974;11.330;2022-10-31T16:49:50;15.60;99.90
17815;DHT22;9031;50.974;11.330;2022-10-31T16:52:16;15.50;99.90
17815;DHT22;9031;50.974;11.330;2022-10-31T16:54:42;15.40;99.90
17815;DHT22;9031;50.974;11.330;2022-10-31T16:57:26;15.40;99.90
17815;DHT22;9031;50.974;11.330;2022-10-31T16:59:52;15.30;99.90
17815;DHT22;9031;50.974;11.330;2022-10-31T17:02:21;15.30;99.90
17815;DHT22;9031;50.974;11.330;2022-10-31T17:04:46;15.20;99.90
17815;DHT22;9031;50.974;11.330;2022-10-31T17:07:12;15.10;99.90
17815;DHT22;9031;50.974;11.330;2022-10-31T17:09:37;15.10;99.90
17815;DHT22;9031;50.974;11.330;2022-10-31T17:12:04;15.10;99.90
17815;DHT22;9031;50.974;11.330;2022-10-31T17:14:31;15.10;99.90
17815;DHT22;9031;50.974;11.330;2022-10-31T17:16:56;15.00;99.90
17815;DHT22;9031;50.974;11.330;2022-10-31T17:19:22;15.00;99.90
17815;DHT22;9031;50.974;11.330;2022-10-31T17:21:47;15.00;99.90
17815;DHT22;9031;50.974;11.330;2022-10-31T17:24:14;15.00;99.90
17815;DHT22;9031;50.974;11.330;2022-10-31T17:26:40;15.00;99.90
17815;DHT22;9031;50.974;11.330;2022-10-31T17:29:05;15.00;99.90
17815;DHT22;9031;50.974;11.330;2022-10-31T17:31:33;14.90;99.90
17815;DHT22;9031;50.974;11.330;2022-10-31T17:34:01;14.90;99.90
17815;DHT22;9031;50.974;11.330;2022-10-31T17:36:27;14.90;99.90
17815;DHT22;9031;50.974;11.330;2022-10-31T17:38:53;14.90;99.90
17815;DHT22;9031;50.974;11.330;2022-10-31T17:41:18;14.90;99.90
17815;DHT22;9031;50.974;11.330;2022-10-31T17:43:43;14.80;99.90
17815;DHT22;9031;50.974;11.330;2022-10-31T17:46:09;14.80;99.90
17815;DHT22;9031;50.974;11.330;2022-10-31T17:48:36;14.70;99.90
17815;DHT22;9031;50.974;11.330;2022-10-31T17:51:03;14.70;99.90
17815;DHT22;9031;50.974;11.330;2022-10-31T17:53:30;14.70;99.90
17815;DHT22;9031;50.974;11.330;2022-10-31T17:56:04;14.60;99.90
17815;DHT22;9031;50.974;11.330;2022-10-31T17:58:30;14.60;99.90